Time;durP1;ratioP1;P1;durP2;ratioP2;P2;SDS_P1;SDS_P2;PMS_P1;PMS_P2;Temp;Humidity;BMP_temperature;BMP_pressure;BME280_temperature;BME280_humidity;BME280_pressure;Samples;Min_cycle;Max_cycle;Signal;HPM_P1;HPM_P2
2022/07/26 00:01:19;;;;;;;11.90;10.90;;;;;;;24.87;100.00;98578.38;5051067;28;20226;-81
2022/07/26 00:03:47;;;;;;;11.75;10.80;;;;;;;24.85;100.00;98580.59;5052745;28;20237;-80
2022/07/26 00:06:14;;;;;;;10.95;10.05;;;;;;;24.83;100.00;98582.88;5046614;28;20783;-81
2022/07/26 00:08:44;;;;;;;11.85;10.85;;;;;;;24.75;100.00;98581.84;5047895;28;20830;-79
2022/07/26 00:11:10;;;;;;;12.00;10.93;;;;;;;24.76;100.00;98571.69;5052417;28;20229;-80
2022/07/26 00:13:37;;;;;;;11.77;10.98;;;;;;;24.76;100.00;98566.22;5051673;28;20317;-80
2022/07/26 00:16:04;;;;;;;11.65;10.70;;;;;;;24.78;100.00;98569.38;5052097;28;20664;-80
2022/07/26 00:18:31;;;;;;;11.73;10.77;;;;;;;24.79;100.00;98577.28;5046492;28;20232;-81
2022/07/26 00:20:58;;;;;;;11.63;10.73;;;;;;;24.79;100.00;98580.03;5051601;28;20229;-80
2022/07/26 00:23:26;;;;;;;12.48;11.27;;;;;;;24.77;100.00;98571.34;5048713;28;20233;-80
2022/07/26 00:25:53;;;;;;;12.35;11.45;;;;;;;24.89;100.00;98576.09;5048764;28;20332;-80
2022/07/26 00:28:19;;;;;;;12.38;11.35;;;;;;;24.90;100.00;98573.00;5034150;28;20342;-81
2022/07/26 00:30:46;;;;;;;12.15;11.32;;;;;;;24.89;100.00;98565.13;5046961;28;20316;-81
2022/07/26 00:33:13;;;;;;;12.70;11.70;;;;;;;24.93;100.00;98569.59;5052026;28;20726;-80
2022/07/26 00:35:39;;;;;;;13.02;12.02;;;;;;;24.93;100.00;98563.31;5052497;28;20324;-80
2022/07/26 00:38:06;;;;;;;12.68;11.68;;;;;;;24.96;100.00;98568.13;5046080;28;20230;-81
2022/07/26 00:40:34;;;;;;;12.88;11.98;;;;;;;24.97;100.00;98559.53;5044133;28;20638;-79
2022/07/26 00:43:02;;;;;;;12.85;11.80;;;;;;;25.01;100.00;98561.63;5044213;28;20237;-80
2022/07/26 00:45:28;;;;;;;12.82;11.82;;;;;;;25.04;100.00;98558.19;5044631;28;20243;-80
2022/07/26 00:47:55;;;;;;;13.00;11.90;;;;;;;25.04;100.00;98550.78;5041853;28;20244;-80
2022/07/26 00:50:22;;;;;;;13.50;12.45;;;;;;;25.05;100.00;98546.91;5043948;28;20240;-80
2022/07/26 00:52:49;;;;;;;13.38;12.32;;;;;;;25.07;100.00;98546.53;5052259;28;20244;-80
2022/07/26 00:55:16;;;;;;;13.18;12.18;;;;;;;25.08;100.00;98545.41;5051542;28;20316;-79
2022/07/26 00:57:44;;;;;;;13.07;12.07;;;;;;;25.03;100.00;98543.69;5046580;28;20247;-79
2022/07/26 01:00:16;;;;;;;13.32;12.32;;;;;;;25.04;100.00;98561.75;5050833;28;20237;-79
2022/07/26 01:02:43;;;;;;;13.20;12.25;;;;;;;25.03;100.00;98553.84;5048118;28;20659;-80
2022/07/26 01:05:10;;;;;;;13.25;12.25;;;;;;;24.98;100.00;98588.56;5038958;28;20230;-78
2022/07/26 01:07:37;;;;;;;12.70;11.75;;;;;;;25.06;100.00;98641.66;5048285;28;20238;-79
2022/07/26 01:10:10;;;;;;;12.55;11.52;;;;;;;25.54;97.90;98646.47;5037463;28;20309;-81
2022/07/26 01:12:38;;;;;;;23.13;9.88;;;;;;;25.85;84.53;98684.31;5050557;28;20218;-79
2022/07/26 01:15:06;;;;;;;16.42;9.30;;;;;;;26.08;80.03;98695.63;5044813;28;20225;-79
2022/07/26 01:17:32;;;;;;;11.15;8.18;;;;;;;26.24;77.80;98713.03;5043654;28;20236;-79
2022/07/26 01:20:05;;;;;;;9.13;8.00;;;;;;;26.48;77.66;98696.53;5049089;28;20711;-78
2022/07/26 01:22:32;;;;;;;22.33;7.75;;;;;;;26.39;79.53;98703.28;5041499;28;20602;-80
2022/07/26 01:24:59;;;;;;;24.00;7.32;;;;;;;26.48;78.24;98698.47;5038644;28;20288;-79
2022/07/26 01:27:26;;;;;;;12.95;5.85;;;;;;;26.25;78.95;98696.22;5045722;28;20235;-80
2022/07/26 01:29:59;;;;;;;7.65;5.95;;;;;;;26.16;79.97;98714.72;5043476;28;20252;-79
2022/07/26 01:32:25;;;;;;;9.38;5.53;;;;;;;26.09;81.29;98697.22;5045168;28;20610;-78
2022/07/26 01:34:52;;;;;;;9.95;5.60;;;;;;;25.95;83.20;98700.31;5043420;28;20263;-79
2022/07/26 01:37:19;;;;;;;7.50;5.20;;;;;;;25.94;84.59;98695.19;5041819;28;20332;-79
2022/07/26 01:39:45;;;;;;;12.65;5.93;;;;;;;25.79;86.49;98699.41;5044647;28;20287;-78
2022/07/26 01:42:12;;;;;;;8.60;5.35;;;;;;;25.73;87.35;98709.00;5040265;28;20235;-79
2022/07/26 01:44:39;;;;;;;8.75;5.30;;;;;;;25.53;90.01;98718.88;5046419;28;20679;-78
2022/07/26 01:47:06;;;;;;;5.75;5.03;;;;;;;25.52;90.80;98700.84;5042239;28;20234;-79
2022/07/26 01:49:32;;;;;;;5.88;5.00;;;;;;;25.57;90.20;98710.81;5045138;28;20702;-78
2022/07/26 01:51:59;;;;;;;7.28;5.05;;;;;;;25.55;89.65;98718.56;5046905;28;20268;-79
2022/07/26 01:54:26;;;;;;;7.22;4.68;;;;;;;25.39;91.75;98696.44;5041901;28;20265;-79
2022/07/26 01:56:52;;;;;;;9.93;4.88;;;;;;;25.42;90.77;98693.03;5039256;28;20237;-79
2022/07/26 01:59:19;;;;;;;7.97;4.25;;;;;;;25.38;91.10;98709.34;5042312;28;20685;-80
2022/07/26 02:01:45;;;;;;;7.45;4.63;;;;;;;25.32;92.16;98716.22;5039940;28;20301;-80
2022/07/26 02:04:57;;;;;;;6.50;4.00;;;;;;;25.28;93.02;98698.84;5039810;28;20233;-80
2022/07/26 02:06:59;;;;;;;6.22;4.28;;;;;;;25.29;93.76;98747.00;5038325;28;20249;-78
2022/07/26 02:09:28;;;;;;;6.30;4.03;;;;;;;25.24;95.39;98730.78;5041040;28;20216;-79
2022/07/26 02:12:03;;;;;;;4.38;3.97;;;;;;;25.12;98.99;98717.03;5042490;28;20246;-79
2022/07/26 02:14:30;;;;;;;5.50;4.03;;;;;;;25.07;99.26;98722.72;5046265;28;20745;-78
2022/07/26 02:16:58;;;;;;;4.88;4.20;;;;;;;25.01;100.00;98713.09;5042974;28;20260;-79
2022/07/26 02:19:29;;;;;;;9.20;4.07;;;;;;;24.94;100.00;98730.09;5046058;28;20253;-79
2022/07/26 02:21:56;;;;;;;5.13;4.10;;;;;;;24.89;100.00;98727.56;5046417;28;20221;-79
2022/07/26 02:24:26;;;;;;;4.75;3.80;;;;;;;24.65;100.00;98734.81;5046163;28;20356;-78
2022/07/26 02:26:52;;;;;;;6.38;3.72;;;;;;;24.47;100.00;98724.00;5047498;28;20870;-79
2022/07/26 02:29:19;;;;;;;5.78;3.85;;;;;;;24.32;100.00;98731.97;5048433;28;20230;-78
2022/07/26 02:31:46;;;;;;;6.13;3.50;;;;;;;24.18;100.00;98756.84;5048443;28;20230;-79
2022/07/26 02:34:15;;;;;;;5.90;3.53;;;;;;;23.81;100.00;98776.75;5048962;28;20222;-79
2022/07/26 02:36:42;;;;;;;4.05;3.50;;;;;;;23.46;100.00;98804.19;5047230;28;20653;-79
2022/07/26 02:39:09;;;;;;;3.70;3.40;;;;;;;23.15;100.00;98811.72;5043330;28;20783;-80
2022/07/26 02:41:35;;;;;;;4.45;3.60;;;;;;;22.75;100.00;98841.09;5030449;28;20316;-81
2022/07/26 02:44:02;;;;;;;3.92;3.58;;;;;;;22.65;100.00;98836.72;5044915;28;20763;-82
2022/07/26 02:46:29;;;;;;;5.35;3.53;;;;;;;22.42;100.00;98827.00;5063386;28;20237;-81
2022/07/26 02:48:56;;;;;;;4.13;3.13;;;;;;;22.20;100.00;98825.19;5044114;28;20225;-78
2022/07/26 02:51:22;;;;;;;3.70;3.20;;;;;;;22.04;100.00;98831.34;5046334;28;20287;-77
2022/07/26 02:53:49;;;;;;;5.57;3.60;;;;;;;21.99;100.00;98818.66;5047910;28;20663;-79
2022/07/26 02:56:16;;;;;;;4.93;3.27;;;;;;;21.71;100.00;98807.09;5046261;28;20232;-81
2022/07/26 02:58:42;;;;;;;3.43;3.13;;;;;;;21.33;100.00;98784.88;5046999;28;20719;-79
2022/07/26 03:01:09;;;;;;;3.47;3.00;;;;;;;21.01;100.00;98755.13;5046316;28;20230;-79
2022/07/26 03:03:36;;;;;;;3.13;2.67;;;;;;;20.93;100.00;98748.50;5048954;28;20247;-79
2022/07/26 03:06:03;;;;;;;3.57;2.83;;;;;;;20.88;100.00;98739.66;5048522;28;20745;-79
2022/07/26 03:08:30;;;;;;;2.90;2.70;;;;;;;20.77;100.00;98746.44;5048749;28;20301;-80
2022/07/26 03:10:57;;;;;;;2.83;2.63;;;;;;;20.75;100.00;98737.78;5048814;28;20229;-80
2022/07/26 03:13:23;;;;;;;3.23;2.93;;;;;;;20.76;100.00;98704.03;5048247;28;20245;-79
2022/07/26 03:15:50;;;;;;;3.57;2.73;;;;;;;20.69;100.00;98670.97;5049036;28;20237;-79
2022/07/26 03:18:17;;;;;;;3.00;2.80;;;;;;;20.74;100.00;98649.88;5047026;28;20242;-78
2022/07/26 03:20:44;;;;;;;3.27;3.00;;;;;;;20.88;100.00;98637.00;5049119;28;20227;-80
2022/07/26 03:23:10;;;;;;;3.00;2.80;;;;;;;20.86;100.00;98641.94;5049235;28;20333;-78
2022/07/26 03:25:37;;;;;;;3.37;3.00;;;;;;;20.84;100.00;98674.13;5047665;28;20231;-79
2022/07/26 03:28:04;;;;;;;3.40;3.10;;;;;;;20.80;100.00;98705.81;5048440;28;20672;-78
2022/07/26 03:30:30;;;;;;;3.57;2.83;;;;;;;20.79;100.00;98722.44;5050229;28;20225;-79
2022/07/26 03:32:57;;;;;;;3.13;2.93;;;;;;;20.77;100.00;98719.22;5052808;28;20707;-78
2022/07/26 03:35:24;;;;;;;3.73;3.03;;;;;;;20.79;100.00;98717.00;5051563;28;20782;-80
2022/07/26 03:37:51;;;;;;;4.33;3.10;;;;;;;20.87;100.00;98711.63;5053034;28;20306;-81
2022/07/26 03:40:18;;;;;;;3.50;3.20;;;;;;;20.98;100.00;98710.28;5052565;28;20281;-80
2022/07/26 03:42:46;;;;;;;3.37;3.07;;;;;;;21.03;100.00;98729.22;5046695;28;20776;-80
2022/07/26 03:45:14;;;;;;;3.30;3.10;;;;;;;21.05;100.00;98726.16;5048716;28;20318;-79
2022/07/26 03:47:41;;;;;;;3.00;2.80;;;;;;;21.01;100.00;98727.91;5050311;28;20241;-80
2022/07/26 03:50:09;;;;;;;3.60;3.30;;;;;;;21.11;100.00;98746.72;5050714;28;20231;-80
2022/07/26 03:52:36;;;;;;;3.73;3.30;;;;;;;21.20;100.00;98768.59;5051635;28;20226;-80
2022/07/26 03:56:27;;;;;;;3.47;3.17;;;;;;;21.10;100.00;98775.06;5052616;28;20228;-80
2022/07/26 03:57:50;;;;;;;3.27;2.97;;;;;;;21.07;100.00;98803.72;5053130;28;20240;-81
2022/07/26 04:00:16;;;;;;;3.30;3.10;;;;;;;21.09;100.00;98806.13;5050947;28;20318;-81
2022/07/26 04:02:43;;;;;;;3.07;2.87;;;;;;;21.25;100.00;98818.31;5051856;28;20633;-81
2022/07/26 04:05:10;;;;;;;3.60;3.30;;;;;;;21.25;100.00;98817.50;5051236;28;20268;-81
2022/07/26 04:07:41;;;;;;;3.33;2.93;;;;;;;21.33;100.00;98812.13;5050114;28;20310;-82
2022/07/26 04:10:18;;;;;;;2.90;2.60;;;;;;;21.45;100.00;98831.47;5050372;28;20705;-81
2022/07/26 04:12:45;;;;;;;3.27;2.97;;;;;;;21.36;100.00;98846.13;5050163;28;20238;-79
2022/07/26 04:15:11;;;;;;;2.93;2.73;;;;;;;21.41;100.00;98863.16;5051037;28;20328;-80
2022/07/26 04:17:39;;;;;;;2.80;2.60;;;;;;;21.41;100.00;98873.25;5051611;28;20316;-81
2022/07/26 04:20:09;;;;;;;2.90;2.70;;;;;;;21.36;100.00;98876.91;5052220;28;20324;-81
2022/07/26 04:22:37;;;;;;;2.83;2.63;;;;;;;21.53;100.00;98885.22;5049768;28;20230;-81
2022/07/26 04:25:05;;;;;;;2.73;2.57;;;;;;;21.51;100.00;98895.59;5050073;28;20236;-81
2022/07/26 04:27:32;;;;;;;2.70;2.50;;;;;;;21.56;100.00;98902.06;5033406;28;20802;-80
2022/07/26 04:29:59;;;;;;;2.90;2.70;;;;;;;21.59;100.00;98902.25;5052345;28;20247;-79
2022/07/26 04:32:26;;;;;;;3.17;2.93;;;;;;;21.48;100.00;98895.44;5049172;28;20234;-79
2022/07/26 04:34:52;;;;;;;2.73;2.53;;;;;;;21.60;100.00;98892.97;5051072;28;20245;-79
2022/07/26 04:37:19;;;;;;;3.30;3.00;;;;;;;21.60;100.00;98894.91;5051812;28;20231;-79
2022/07/26 04:39:46;;;;;;;2.93;2.73;;;;;;;21.53;100.00;98907.03;5050785;28;20310;-79
2022/07/26 04:42:19;;;;;;;2.83;2.60;;;;;;;21.55;100.00;98905.91;5047996;28;20713;-78
2022/07/26 04:44:46;;;;;;;3.07;2.87;;;;;;;21.29;100.00;98909.22;5050208;28;20227;-79
2022/07/26 04:47:13;;;;;;;3.43;2.93;;;;;;;21.01;100.00;98919.31;5049045;28;20233;-81
2022/07/26 04:49:40;;;;;;;3.30;3.00;;;;;;;21.04;100.00;98915.97;5049661;28;20237;-79
2022/07/26 04:52:06;;;;;;;3.00;2.80;;;;;;;20.95;100.00;98917.03;5050579;28;20753;-82
2022/07/26 04:54:33;;;;;;;3.63;3.10;;;;;;;20.91;100.00;98908.63;5048946;28;20349;-80
2022/07/26 04:56:59;;;;;;;3.30;3.00;;;;;;;20.95;100.00;98912.38;5052052;28;20603;-80
2022/07/26 04:59:26;;;;;;;2.90;2.70;;;;;;;20.83;100.00;98914.81;5047487;28;20804;-80
2022/07/26 05:01:57;;;;;;;3.40;3.10;;;;;;;20.80;100.00;98922.78;5049279;28;20240;-80
2022/07/26 05:04:25;;;;;;;3.30;3.00;;;;;;;20.83;100.00;98920.25;5047054;28;20228;-81
2022/07/26 05:06:52;;;;;;;3.40;3.10;;;;;;;20.80;100.00;98929.03;5051531;28;20229;-80
2022/07/26 05:09:18;;;;;;;3.40;3.10;;;;;;;20.85;100.00;98930.84;5051843;28;20264;-80
2022/07/26 05:11:45;;;;;;;2.87;2.67;;;;;;;20.98;100.00;98959.97;5051277;28;20293;-80
2022/07/26 05:14:12;;;;;;;3.00;2.80;;;;;;;21.02;100.00;98969.97;5051399;28;20317;-80
2022/07/26 05:16:38;;;;;;;3.17;2.97;;;;;;;20.98;100.00;98979.03;5044264;28;20396;-80
2022/07/26 05:19:10;;;;;;;3.07;2.87;;;;;;;21.10;100.00;98965.72;5045651;28;20242;-79
2022/07/26 05:21:37;;;;;;;2.87;2.47;;;;;;;21.07;100.00;98953.53;5050466;28;20227;-80
2022/07/26 05:24:03;;;;;;;3.00;2.80;;;;;;;21.18;100.00;98961.50;5050956;28;20323;-78
2022/07/26 05:26:33;;;;;;;3.00;2.80;;;;;;;21.14;100.00;98971.41;5050718;28;20250;-80
2022/07/26 05:29:00;;;;;;;3.00;2.80;;;;;;;21.00;100.00;98972.16;5051430;28;20233;-81
2022/07/26 05:31:27;;;;;;;2.90;2.70;;;;;;;21.13;100.00;98986.09;5034051;28;20309;-81
2022/07/26 05:33:54;;;;;;;3.27;2.70;;;;;;;21.00;100.00;99009.47;5051966;28;20974;-81
2022/07/26 05:36:20;;;;;;;3.23;2.93;;;;;;;21.11;100.00;99040.88;5050083;28;20423;-81
2022/07/26 05:38:47;;;;;;;3.47;3.17;;;;;;;21.05;100.00;99044.78;5041533;28;20266;-81
2022/07/26 05:41:14;;;;;;;3.50;3.20;;;;;;;20.90;100.00;99028.75;5047731;28;20244;-81
2022/07/26 05:43:40;;;;;;;4.23;3.50;;;;;;;20.73;100.00;99002.13;5042438;28;20261;-80
2022/07/26 05:46:09;;;;;;;3.80;3.50;;;;;;;20.66;100.00;98990.84;5045192;28;20624;-80
2022/07/26 05:48:36;;;;;;;3.70;3.40;;;;;;;20.65;100.00;99000.09;5050746;28;20257;-80
2022/07/26 05:51:03;;;;;;;4.17;3.40;;;;;;;20.56;100.00;99001.91;5051227;28;20245;-81
2022/07/26 05:53:30;;;;;;;3.80;3.40;;;;;;;20.39;100.00;99005.16;5049809;28;20261;-81
2022/07/26 05:55:56;;;;;;;3.57;3.23;;;;;;;20.45;100.00;99001.25;5030929;28;20288;-80
2022/07/26 05:58:23;;;;;;;3.70;3.40;;;;;;;20.37;100.00;99004.69;5042447;28;20282;-80
2022/07/26 06:00:50;;;;;;;3.77;3.47;;;;;;;20.31;100.00;99010.50;5050618;28;20322;-80
2022/07/26 06:03:22;;;;;;;5.10;3.53;;;;;;;20.39;100.00;99012.56;5042593;28;20262;-81
2022/07/26 06:05:56;;;;;;;3.93;3.53;;;;;;;20.43;100.00;99010.84;5045925;28;20240;-81
2022/07/26 06:08:24;;;;;;;3.80;3.40;;;;;;;20.42;100.00;99020.09;5043574;28;20595;-81
2022/07/26 06:10:52;;;;;;;4.23;3.40;;;;;;;20.37;100.00;99010.13;5040990;28;20653;-82
2022/07/26 06:13:18;;;;;;;4.50;3.60;;;;;;;20.39;100.00;99009.84;5038021;28;20276;-80
2022/07/26 06:15:46;;;;;;;4.20;3.80;;;;;;;20.31;100.00;99014.03;5045278;28;20250;-81
2022/07/26 06:18:12;;;;;;;4.10;3.60;;;;;;;20.19;100.00;99013.66;5042999;28;20301;-81
2022/07/26 06:20:41;;;;;;;4.10;3.70;;;;;;;20.25;100.00;99019.84;5052902;28;20361;-78
2022/07/26 06:23:07;;;;;;;4.50;3.80;;;;;;;20.39;100.00;99035.09;5037433;28;20242;-76
2022/07/26 06:25:34;;;;;;;4.03;3.73;;;;;;;20.58;100.00;99027.69;5039280;28;20622;-77
2022/07/26 06:28:02;;;;;;;3.87;3.57;;;;;;;20.87;100.00;99026.63;5038652;28;20253;-76
2022/07/26 06:30:29;;;;;;;4.00;3.60;;;;;;;21.17;100.00;99031.53;5038606;28;20269;-79
2022/07/26 06:32:56;;;;;;;3.67;3.37;;;;;;;21.24;100.00;99026.47;5038952;28;20225;-79
2022/07/26 06:35:29;;;;;;;3.73;3.43;;;;;;;21.57;100.00;99020.88;5037712;28;20240;-79
2022/07/26 06:37:59;;;;;;;3.80;3.00;;;;;;;21.52;100.00;99019.06;5040291;28;20259;-78
2022/07/26 06:40:26;;;;;;;4.87;3.30;;;;;;;21.70;100.00;99006.38;5039018;28;20369;-78
2022/07/26 06:42:53;;;;;;;3.50;3.20;;;;;;;21.76;100.00;98995.06;5040518;28;20283;-78
2022/07/26 06:45:19;;;;;;;3.43;3.00;;;;;;;22.02;100.00;98999.97;5037672;28;20671;-78
2022/07/26 06:47:46;;;;;;;3.43;3.10;;;;;;;22.28;100.00;99009.94;5041769;28;20367;-78
2022/07/26 06:50:13;;;;;;;3.17;2.87;;;;;;;22.48;100.00;99030.47;5037094;28;20259;-78
2022/07/26 06:52:42;;;;;;;3.67;3.03;;;;;;;22.69;100.00;99028.81;5040107;28;20324;-78
2022/07/26 06:55:13;;;;;;;2.83;2.63;;;;;;;22.97;100.00;99031.38;5037992;28;20230;-78
2022/07/26 06:57:40;;;;;;;3.15;2.85;;;;;;;23.24;100.00;99029.22;5043473;28;20235;-79
2022/07/26 07:00:18;;;;;;;2.97;2.78;;;;;;;23.58;100.00;99031.25;5045910;28;20282;-79
2022/07/26 07:02:45;;;;;;;3.13;2.90;;;;;;;23.84;100.00;99039.53;5048303;28;20271;-78
2022/07/26 07:05:11;;;;;;;4.07;3.00;;;;;;;23.88;100.00;99047.88;5049710;28;20236;-79
2022/07/26 07:07:38;;;;;;;2.83;2.63;;;;;;;23.94;100.00;99049.31;5052510;28;20782;-79
2022/07/26 07:10:08;;;;;;;2.85;2.65;;;;;;;23.78;100.00;99040.78;5052215;28;20271;-78
2022/07/26 07:12:35;;;;;;;3.97;2.78;;;;;;;23.79;100.00;99009.59;5052514;28;20230;-78
2022/07/26 07:15:01;;;;;;;2.97;2.78;;;;;;;23.50;100.00;98988.31;5052909;28;20308;-78
2022/07/26 07:17:28;;;;;;;3.03;2.67;;;;;;;23.72;100.00;98951.00;5052854;28;20714;-79
2022/07/26 07:19:55;;;;;;;2.97;2.50;;;;;;;23.64;100.00;98941.69;5052817;28;20205;-77
2022/07/26 07:22:22;;;;;;;2.20;2.10;;;;;;;23.51;100.00;98956.31;5050687;28;20658;-78
2022/07/26 07:24:48;;;;;;;2.53;2.33;;;;;;;23.87;100.00;98966.94;5047018;28;20304;-78
2022/07/26 07:27:15;;;;;;;2.70;2.50;;;;;;;24.04;100.00;98978.66;5048348;28;20253;-79
2022/07/26 07:29:42;;;;;;;2.72;2.53;;;;;;;24.41;100.00;98993.59;5045891;28;20313;-78
2022/07/26 07:32:09;;;;;;;2.67;2.30;;;;;;;24.60;100.00;99001.44;5048570;28;20325;-79
2022/07/26 07:34:46;;;;;;;2.40;2.20;;;;;;;25.12;100.00;99014.97;5045018;28;20248;-78
2022/07/26 07:37:14;;;;;;;2.55;2.35;;;;;;;25.23;100.00;99019.78;5048424;28;20229;-78
2022/07/26 07:39:41;;;;;;;2.25;2.13;;;;;;;25.59;100.00;99013.75;5044408;28;20235;-79
2022/07/26 07:42:08;;;;;;;2.22;2.03;;;;;;;25.61;100.00;99032.66;5044195;28;20276;-79
2022/07/26 07:44:34;;;;;;;2.83;2.53;;;;;;;25.86;100.00;99040.69;5046597;28;20234;-79
2022/07/26 07:47:02;;;;;;;2.47;2.28;;;;;;;25.90;100.00;99043.53;5043353;28;20257;-79
2022/07/26 07:49:29;;;;;;;2.38;2.03;;;;;;;25.42;100.00;99063.22;5045276;28;20222;-80
2022/07/26 07:51:55;;;;;;;2.45;2.25;;;;;;;25.06;100.00;99063.69;5042802;28;21601;-78
2022/07/26 07:54:22;;;;;;;2.78;2.05;;;;;;;24.84;100.00;99072.13;5045161;28;20241;-79
2022/07/26 07:56:51;;;;;;;3.00;2.13;;;;;;;24.65;100.00;99071.69;5049565;28;20289;-80
2022/07/26 07:59:17;;;;;;;2.45;2.25;;;;;;;24.41;100.00;99072.19;5051339;28;20244;-78
2022/07/26 08:01:48;;;;;;;2.38;2.28;;;;;;;24.32;100.00;99085.09;5051366;28;20233;-78
2022/07/26 08:04:15;;;;;;;2.65;2.45;;;;;;;24.32;100.00;99090.56;5051223;28;20790;-78
2022/07/26 08:06:42;;;;;;;2.50;2.30;;;;;;;24.24;100.00;99088.63;5048379;28;20260;-79
2022/07/26 08:09:16;;;;;;;2.50;2.28;;;;;;;23.99;100.00;99088.28;5051183;28;20248;-78
2022/07/26 08:11:42;;;;;;;2.40;2.30;;;;;;;23.84;100.00;99098.88;5050198;28;20225;-78
2022/07/26 08:14:09;;;;;;;3.33;2.38;;;;;;;23.66;100.00;99098.84;5049342;28;20233;-80
2022/07/26 08:16:36;;;;;;;2.47;2.28;;;;;;;23.47;100.00;99078.38;5050266;28;20313;-78
2022/07/26 08:19:03;;;;;;;3.03;2.47;;;;;;;23.34;100.00;99074.59;5050502;28;20234;-78
2022/07/26 08:21:30;;;;;;;3.17;2.10;;;;;;;23.25;100.00;99082.75;5051326;28;20224;-78
2022/07/26 08:23:56;;;;;;;2.50;2.30;;;;;;;23.27;100.00;99077.00;5051258;28;20252;-79
2022/07/26 08:26:23;;;;;;;2.72;2.40;;;;;;;23.37;100.00;99084.09;5050448;28;20244;-79
2022/07/26 08:28:50;;;;;;;3.38;2.60;;;;;;;23.36;100.00;99080.56;5051276;28;20227;-78
2022/07/26 08:31:26;;;;;;;2.65;2.45;;;;;;;23.66;100.00;99078.88;5050989;28;20229;-79
2022/07/26 08:33:54;;;;;;;2.67;2.47;;;;;;;23.59;100.00;99087.56;5051398;28;20704;-79
2022/07/26 08:36:21;;;;;;;2.67;2.40;;;;;;;23.55;100.00;99081.13;5050415;28;20239;-79
2022/07/26 08:38:47;;;;;;;2.58;2.47;;;;;;;23.56;100.00;99074.50;5051148;28;20244;-79
2022/07/26 08:41:16;;;;;;;2.75;2.53;;;;;;;23.34;100.00;99074.59;5051094;28;20238;-79
2022/07/26 08:43:45;;;;;;;2.60;2.40;;;;;;;23.27;100.00;99075.06;5046944;28;20720;-80
2022/07/26 08:46:22;;;;;;;2.33;2.13;;;;;;;23.21;100.00;99072.78;5049622;28;20240;-79
2022/07/26 08:48:56;;;;;;;2.20;2.10;;;;;;;23.13;100.00;99081.75;5050956;28;20268;-79
2022/07/26 08:51:24;;;;;;;2.35;2.25;;;;;;;23.16;100.00;99086.56;5050898;28;20237;-79
2022/07/26 08:53:56;;;;;;;2.17;1.98;;;;;;;23.03;100.00;99084.75;5050254;28;20225;-79
2022/07/26 08:56:34;;;;;;;2.80;2.30;;;;;;;23.05;100.00;99082.53;5050654;28;20235;-79
2022/07/26 08:59:04;;;;;;;2.47;2.28;;;;;;;22.91;100.00;99079.09;5051106;28;20690;-78
2022/07/26 09:01:31;;;;;;;2.40;2.20;;;;;;;22.79;100.00;99075.00;5049426;28;20237;-79
2022/07/26 09:04:16;;;;;;;2.50;2.30;;;;;;;22.82;100.00;99074.34;5049567;28;20247;-79
2022/07/26 09:07:00;;;;;;;2.30;2.10;;;;;;;22.99;100.00;99083.78;5049387;28;20226;-80
2022/07/26 09:09:27;;;;;;;2.30;2.10;;;;;;;23.05;100.00;99080.56;5049630;28;20232;-79
2022/07/26 09:11:55;;;;;;;2.38;2.17;;;;;;;23.13;100.00;99076.28;5050297;28;20655;-79
2022/07/26 09:14:35;;;;;;;2.47;2.28;;;;;;;23.23;100.00;99076.81;5048085;28;20630;-79
2022/07/26 09:17:02;;;;;;;2.40;2.20;;;;;;;23.27;100.00;99082.44;5048845;28;20247;-79
2022/07/26 09:19:28;;;;;;;2.22;2.03;;;;;;;23.52;100.00;99089.94;5050592;28;20237;-81
2022/07/26 09:21:56;;;;;;;2.13;2.00;;;;;;;23.62;100.00;99089.66;5050197;28;20271;-79
2022/07/26 09:24:35;;;;;;;2.00;1.90;;;;;;;23.71;100.00;99089.66;5050468;28;20236;-79
2022/07/26 09:27:04;;;;;;;1.90;1.80;;;;;;;23.80;100.00;99090.50;5049588;28;20642;-79
2022/07/26 09:29:44;;;;;;;2.10;2.00;;;;;;;23.85;100.00;99092.28;5045305;28;20759;-79
2022/07/26 09:32:24;;;;;;;2.10;1.90;;;;;;;23.86;100.00;99097.44;5041685;28;20645;-80
2022/07/26 09:34:57;;;;;;;3.33;2.20;;;;;;;23.99;100.00;99093.75;5048565;28;20223;-79
2022/07/26 09:37:42;;;;;;;2.00;1.90;;;;;;;24.12;100.00;99092.78;5049293;28;20279;-78
2022/07/26 09:40:12;;;;;;;2.45;2.00;;;;;;;24.26;100.00;99091.88;5046295;28;20291;-78
2022/07/26 09:43:04;;;;;;;2.10;1.90;;;;;;;24.37;100.00;99096.69;5042397;28;20248;-78
2022/07/26 09:45:33;;;;;;;2.20;1.90;;;;;;;24.43;100.00;99100.06;5047426;28;20261;-79
2022/07/26 09:48:01;;;;;;;2.03;1.90;;;;;;;24.28;100.00;99100.53;5048518;28;20252;-79
2022/07/26 09:50:29;;;;;;;2.20;2.00;;;;;;;24.34;100.00;99091.06;5047581;28;20295;-78
2022/07/26 09:52:59;;;;;;;2.20;2.10;;;;;;;24.32;100.00;99105.06;5049179;28;20224;-80
2022/07/26 09:55:26;;;;;;;2.80;2.40;;;;;;;24.47;100.00;99109.25;5049164;28;20234;-79
2022/07/26 09:58:05;;;;;;;2.63;2.10;;;;;;;24.58;100.00;99113.25;5047169;28;20241;-80
2022/07/26 10:00:32;;;;;;;2.00;1.90;;;;;;;24.44;100.00;99102.50;5049625;28;20217;-80
2022/07/26 10:03:00;;;;;;;2.58;2.38;;;;;;;24.56;100.00;99102.63;5043785;28;20254;-78
2022/07/26 10:05:27;;;;;;;2.55;2.38;;;;;;;24.58;100.00;99107.78;5048108;28;20898;-80
2022/07/26 10:07:54;;;;;;;2.38;2.17;;;;;;;24.77;100.00;99108.25;5048637;28;20225;-78
2022/07/26 10:10:43;;;;;;;2.15;2.05;;;;;;;24.90;100.00;99106.47;5049024;28;20259;-78
2022/07/26 10:13:10;;;;;;;2.00;1.90;;;;;;;24.90;100.00;99107.28;5045518;28;20286;-78
2022/07/26 10:15:40;;;;;;;2.47;2.08;;;;;;;25.09;100.00;99109.63;5049327;28;20233;-78
2022/07/26 10:18:10;;;;;;;2.78;2.10;;;;;;;25.57;100.00;99111.25;5047722;28;20249;-78
2022/07/26 10:20:50;;;;;;;2.80;1.90;;;;;;;25.98;100.00;99118.75;5048201;28;20229;-79
2022/07/26 10:23:35;;;;;;;2.05;1.85;;;;;;;26.79;92.33;99115.47;5044836;28;20780;-79
2022/07/26 10:26:04;;;;;;;2.13;2.03;;;;;;;27.30;85.36;99114.13;5045150;28;20308;-81
2022/07/26 10:28:33;;;;;;;2.08;1.90;;;;;;;27.45;80.39;99121.72;5043993;28;20267;-79
2022/07/26 10:31:22;;;;;;;2.42;2.15;;;;;;;27.95;76.71;99124.94;5048756;28;20261;-79
2022/07/26 10:33:51;;;;;;;2.42;2.22;;;;;;;28.22;77.95;99123.44;5047602;28;20719;-79
2022/07/26 10:36:34;;;;;;;3.25;2.17;;;;;;;28.65;74.87;99125.44;5048241;28;20320;-79
2022/07/26 10:39:04;;;;;;;2.40;2.20;;;;;;;28.86;72.16;99112.28;5048639;28;20221;-79
2022/07/26 10:41:39;;;;;;;2.58;2.28;;;;;;;29.74;68.79;99111.00;5050806;28;20237;-78
2022/07/26 10:44:19;;;;;;;2.40;2.20;;;;;;;30.12;64.17;99109.50;5048893;28;20229;-79
2022/07/26 10:47:08;;;;;;;2.42;2.22;;;;;;;30.35;62.77;99120.63;5049390;28;20259;-79
2022/07/26 10:49:55;;;;;;;2.35;2.15;;;;;;;30.24;59.97;99116.84;5049435;28;20233;-79
2022/07/26 10:52:27;;;;;;;2.92;2.50;;;;;;;29.99;62.05;99113.56;5051931;28;20236;-81
2022/07/26 10:55:00;;;;;;;2.92;2.63;;;;;;;29.62;64.35;99111.09;5052829;28;20229;-78
2022/07/26 10:57:32;;;;;;;2.40;2.20;;;;;;;30.06;64.61;99105.41;5051989;28;20233;-78
2022/07/26 11:00:03;;;;;;;2.38;2.28;;;;;;;29.83;62.47;99105.25;5052318;28;20233;-79
2022/07/26 11:02:31;;;;;;;2.65;2.45;;;;;;;30.09;61.08;99096.41;5052636;28;20236;-79
2022/07/26 11:05:12;;;;;;;2.80;2.38;;;;;;;30.06;59.10;99103.44;5052344;28;20233;-79
2022/07/26 11:08:03;;;;;;;2.63;2.42;;;;;;;30.17;62.08;99101.72;5048149;28;20252;-79
2022/07/26 11:10:39;;;;;;;2.80;2.60;;;;;;;30.05;59.44;99090.78;5052049;28;20229;-79
2022/07/26 11:13:16;;;;;;;2.90;2.70;;;;;;;30.48;57.00;99083.44;5049811;28;20225;-78
2022/07/26 11:15:49;;;;;;;3.40;3.10;;;;;;;30.80;54.64;99082.06;5051478;28;20261;-78
2022/07/26 11:18:16;;;;;;;3.15;2.90;;;;;;;30.82;51.99;99078.94;5049104;28;20577;-79
2022/07/26 11:20:45;;;;;;;4.25;3.03;;;;;;;31.10;54.05;99064.84;5052228;28;20746;-78
2022/07/26 11:23:25;;;;;;;3.13;2.92;;;;;;;31.43;52.42;99068.59;5051829;28;20238;-79
2022/07/26 11:26:03;;;;;;;3.33;3.13;;;;;;;31.60;51.87;99066.47;5052191;28;20264;-79
2022/07/26 11:28:44;;;;;;;2.95;2.72;;;;;;;32.37;51.20;99069.56;5046009;28;21543;-78
2022/07/26 11:31:13;;;;;;;3.35;3.15;;;;;;;32.64;49.64;99067.50;5051818;28;20237;-78
2022/07/26 11:33:42;;;;;;;3.83;3.15;;;;;;;32.34;48.76;99064.75;5049749;28;20708;-78